Pataskala, OH (43062)

11:25 AM EST on January 31, 2015 (GMT -0500)
Jefferson Ridge | Change Station
CLOSE
Current Station
Personal Weather Station
Location: Pataskala, OH
Elevation: 1200 ft
Nearby Weather Stations
Active Advisory: Winter Storm Watch

Elev 1200 ft 40.02 °N, 82.64 °W | Updated 48 seconds ago

Partly Cloudy
Partly Cloudy
24.7 °F
Feels Like 25 °F
N
3.0
Wind Variable Wind from SSW
Gusts 10.0 mph

Today
High -- | Low -- °F
--% Chance of Precip.
Yesterday
High -- | Low -- °F
Precip. -- in
7:40 AM 5:48 PM
Waxing Gibbous, 90% visible
Pressure 30.42 in
Visibility 10.0 miles
Clouds Few 10000 ft
Windchill 25 °F
Dew Point 15 °F
Humidity 66%
Rainfall 0.00 in
Snow Depth Not available.
UV 2 out of 12
Pollen .30 out of 12
Air Quality Not available.
Flu Activity Not available.
METAR KCMH 311551Z 19007KT 10SM FEW100 M04/M09 A3037 RMK AO2 SLP299 T10441094

More Conditions Fewer Conditions

Pressure 30.42 in
Visibility 10.0 miles
Clouds Few 10000 ft
Windchill 25 °F
Dew Point 15 °F
Humidity 66%
Rainfall 0.00 in
Snow Depth Not available.
UV 2 out of 12
Pollen .30 out of 12
Air Quality Not available.
Flu Activity Not available.
METAR KCMH 311551Z 19007KT 10SM FEW100 M04/M09 A3037 RMK AO2 SLP299 T10441094

More Conditions Fewer Conditions

10-Day Weather Forecast

Almanac

Astronomy

Jan. 31, 2015 Rise Set
Actual Time
Civil Twilight
Nautical Twilight
Astronomical Twilight
Moon
Length of Visible Light
Length of Day
Tomorrow will be .
, % of the Moon is Illuminated

Today's Extremes

State Highs State Lows

Community

WunderPhotos

Upload Photos

1,792,100 photos uploaded!

WunderBlogs® & News

Nearby

Air Quality

  Air Quality AQ Index Pollutant
Not available.

Snow Depth

Station Depth Elevation

Earthquake Activity

City Distance Mag. Time & Date
Minimum magnitude displayed is 2.5.

Coastal Water Temperatures

Place Temperature

Nearby Weather Stations